UAL2250 KIAH-KSAT
Flight info
| Callsign | UAL2250 |
|---|---|
| Flight time | 0h 43m |
| Altitude | 20000 |
| Route | PITZZ5 WAILN QERVO3 |
| Aircraft | B739/M-SDE2E3FGHIRWXY/LB1 |
Departure
| Time | 2026-04-21 17:14 |
|---|---|
| Airport | George Bush Intercontinental Airport (KIAH) |
Arrival
| Time | 2026-04-21 17:57 |
|---|---|
| Airport | San Antonio International Airport (KSAT) |
| Time | Latitude | Longitude | Altitude | Speed | Heading |
|---|---|---|---|---|---|
| 2026-04-21 16:47 | 29.98786 | -95.34731 | 104 ft | 0 kts | 112° |
| 2026-04-21 16:56 | 29.98794 | -95.34752 | 106 ft | 4 kts | 125° |
| 2026-04-21 16:56 | 29.98808 | -95.34777 | 106 ft | 4 kts | 105° |
| 2026-04-21 16:56 | 29.98807 | -95.34803 | 106 ft | 4 kts | 43° |
| 2026-04-21 16:57 | 29.98791 | -95.34811 | 104 ft | 3 kts | 0° |
| 2026-04-21 16:57 | 29.98771 | -95.34811 | 104 ft | 0 kts | 0° |
| 2026-04-21 17:06 | 29.98774 | -95.34811 | 115 ft | 2 kts | 0° |
| 2026-04-21 17:06 | 29.98782 | -95.34811 | 113 ft | 1 kts | 0° |
| 2026-04-21 17:07 | 29.98787 | -95.34811 | 106 ft | 1 kts | 0° |
| 2026-04-21 17:07 | 29.98802 | -95.34811 | 106 ft | 3 kts | 0° |
| 2026-04-21 17:07 | 29.98818 | -95.34811 | 106 ft | 2 kts | 1° |
| 2026-04-21 17:07 | 29.98842 | -95.34810 | 106 ft | 6 kts | 0° |
| 2026-04-21 17:08 | 29.98895 | -95.34810 | 106 ft | 10 kts | 1° |
| 2026-04-21 17:08 | 29.98971 | -95.34820 | 106 ft | 13 kts | 331° |
| 2026-04-21 17:08 | 29.98994 | -95.34923 | 106 ft | 16 kts | 269° |
| 2026-04-21 17:08 | 29.98995 | -95.35064 | 106 ft | 19 kts | 270° |
| 2026-04-21 17:09 | 29.98995 | -95.35409 | 106 ft | 18 kts | 270° |
| 2026-04-21 17:09 | 29.99083 | -95.35486 | 106 ft | 19 kts | 357° |
| 2026-04-21 17:09 | 29.99153 | -95.35559 | 106 ft | 15 kts | 277° |
| 2026-04-21 17:10 | 29.99154 | -95.35678 | 106 ft | 15 kts | 272° |
| 2026-04-21 17:10 | 29.99121 | -95.35798 | 106 ft | 19 kts | 225° |
| 2026-04-21 17:10 | 29.99082 | -95.35944 | 106 ft | 21 kts | 249° |
| 2026-04-21 17:10 | 29.99041 | -95.36025 | 105 ft | 13 kts | 224° |
| 2026-04-21 17:11 | 29.98928 | -95.35993 | 106 ft | 15 kts | 148° |
| 2026-04-21 17:11 | 29.98826 | -95.35949 | 107 ft | 18 kts | 166° |
| 2026-04-21 17:11 | 29.98745 | -95.35882 | 107 ft | 5 kts | 105° |
| 2026-04-21 17:11 | 29.98744 | -95.35873 | 107 ft | 2 kts | 90° |
| 2026-04-21 17:12 | 29.98748 | -95.35855 | 108 ft | 5 kts | 72° |
| 2026-04-21 17:12 | 29.98764 | -95.35805 | 108 ft | 2 kts | 70° |
| 2026-04-21 17:12 | 29.98764 | -95.35792 | 108 ft | 3 kts | 93° |
| 2026-04-21 17:12 | 29.98741 | -95.35759 | 108 ft | 8 kts | 143° |
| 2026-04-21 17:13 | 29.98669 | -95.35713 | 107 ft | 25 kts | 152° |
| 2026-04-21 17:13 | 29.98248 | -95.35455 | 106 ft | 110 kts | 152° |
| 2026-04-21 17:13 | 29.97363 | -95.34903 | 113 ft | 175 kts | 149° |
| 2026-04-21 17:13 | 29.96186 | -95.34257 | 664 ft | 198 kts | 157° |
| 2026-04-21 17:14 | 29.94757 | -95.33936 | 1368 ft | 223 kts | 179° |
| 2026-04-21 17:14 | 29.93423 | -95.34702 | 2734 ft | 215 kts | 222° |
| 2026-04-21 17:14 | 29.92654 | -95.36197 | 3505 ft | 223 kts | 236° |
| 2026-04-21 17:14 | 29.91861 | -95.37773 | 3821 ft | 232 kts | 232° |
| 2026-04-21 17:15 | 29.90947 | -95.39318 | 4262 ft | 234 kts | 230° |
| 2026-04-21 17:15 | 29.89986 | -95.40814 | 4831 ft | 232 kts | 229° |
| 2026-04-21 17:15 | 29.88986 | -95.42304 | 4972 ft | 235 kts | 230° |
| 2026-04-21 17:15 | 29.88048 | -95.43858 | 5090 ft | 237 kts | 237° |
| 2026-04-21 17:16 | 29.87237 | -95.45499 | 5549 ft | 238 kts | 238° |
| 2026-04-21 17:16 | 29.86422 | -95.47161 | 6132 ft | 237 kts | 238° |
| 2026-04-21 17:16 | 29.85598 | -95.48821 | 6617 ft | 242 kts | 240° |
| 2026-04-21 17:16 | 29.84771 | -95.50522 | 7144 ft | 241 kts | 241° |
| 2026-04-21 17:17 | 29.83955 | -95.52217 | 7649 ft | 243 kts | 241° |
| 2026-04-21 17:17 | 29.83131 | -95.53920 | 8153 ft | 244 kts | 241° |
| 2026-04-21 17:17 | 29.82315 | -95.55634 | 8665 ft | 244 kts | 244° |
| 2026-04-21 17:17 | 29.81829 | -95.57519 | 9103 ft | 247 kts | 258° |
| 2026-04-21 17:18 | 29.81518 | -95.59444 | 9526 ft | 248 kts | 259° |
| 2026-04-21 17:18 | 29.81206 | -95.61403 | 9941 ft | 249 kts | 259° |
| 2026-04-21 17:18 | 29.80887 | -95.63369 | 10343 ft | 250 kts | 258° |
| 2026-04-21 17:18 | 29.80564 | -95.65336 | 10725 ft | 250 kts | 258° |
| 2026-04-21 17:19 | 29.80234 | -95.67313 | 11102 ft | 252 kts | 258° |
| 2026-04-21 17:19 | 29.79899 | -95.69306 | 11497 ft | 254 kts | 258° |
| 2026-04-21 17:19 | 29.79560 | -95.71308 | 11920 ft | 255 kts | 258° |
| 2026-04-21 17:19 | 29.79222 | -95.73298 | 12395 ft | 256 kts | 258° |
| 2026-04-21 17:20 | 29.78876 | -95.75323 | 12851 ft | 259 kts | 258° |
| 2026-04-21 17:20 | 29.78527 | -95.77362 | 13376 ft | 260 kts | 258° |
| 2026-04-21 17:20 | 29.78175 | -95.79422 | 13794 ft | 268 kts | 258° |
| 2026-04-21 17:20 | 29.77801 | -95.81599 | 13904 ft | 291 kts | 258° |
| 2026-04-21 17:21 | 29.77393 | -95.83969 | 14059 ft | 311 kts | 258° |
| 2026-04-21 17:21 | 29.76960 | -95.86486 | 14217 ft | 329 kts | 258° |
| 2026-04-21 17:21 | 29.76670 | -95.89171 | 14345 ft | 348 kts | 269° |
| 2026-04-21 17:21 | 29.76764 | -95.91978 | 14642 ft | 359 kts | 272° |
| 2026-04-21 17:22 | 29.76923 | -95.94864 | 15210 ft | 361 kts | 272° |
| 2026-04-21 17:22 | 29.77081 | -95.97763 | 15792 ft | 362 kts | 272° |
| 2026-04-21 17:22 | 29.77223 | -96.00654 | 15972 ft | 361 kts | 272° |
| 2026-04-21 17:22 | 29.77350 | -96.03535 | 15967 ft | 359 kts | 271° |
| 2026-04-21 17:23 | 29.77467 | -96.06391 | 15958 ft | 355 kts | 271° |
| 2026-04-21 17:23 | 29.77577 | -96.09191 | 15935 ft | 355 kts | 271° |
| 2026-04-21 17:23 | 29.77686 | -96.12039 | 15931 ft | 356 kts | 271° |
| 2026-04-21 17:23 | 29.77795 | -96.14893 | 15910 ft | 356 kts | 271° |
| 2026-04-21 17:24 | 29.77904 | -96.17744 | 15908 ft | 356 kts | 271° |
| 2026-04-21 17:24 | 29.78050 | -96.20593 | 15919 ft | 357 kts | 273° |
| 2026-04-21 17:24 | 29.78261 | -96.23449 | 15922 ft | 358 kts | 274° |
| 2026-04-21 17:24 | 29.78490 | -96.26279 | 15926 ft | 359 kts | 274° |
| 2026-04-21 17:25 | 29.78721 | -96.29151 | 15913 ft | 359 kts | 274° |
| 2026-04-21 17:25 | 29.78946 | -96.32024 | 15909 ft | 359 kts | 274° |
| 2026-04-21 17:25 | 29.79166 | -96.34893 | 15905 ft | 358 kts | 274° |
| 2026-04-21 17:25 | 29.79381 | -96.37747 | 15897 ft | 357 kts | 274° |
| 2026-04-21 17:26 | 29.79593 | -96.40602 | 15917 ft | 357 kts | 274° |
| 2026-04-21 17:26 | 29.79800 | -96.43408 | 15908 ft | 356 kts | 274° |
| 2026-04-21 17:26 | 29.80009 | -96.46255 | 15911 ft | 356 kts | 274° |
| 2026-04-21 17:26 | 29.80217 | -96.49100 | 15897 ft | 356 kts | 274° |
| 2026-04-21 17:27 | 29.80426 | -96.51952 | 15893 ft | 356 kts | 274° |
| 2026-04-21 17:27 | 29.80633 | -96.54795 | 15909 ft | 356 kts | 274° |
| 2026-04-21 17:27 | 29.80837 | -96.57608 | 15901 ft | 356 kts | 274° |
| 2026-04-21 17:27 | 29.81045 | -96.60463 | 15902 ft | 357 kts | 274° |
| 2026-04-21 17:28 | 29.81252 | -96.63314 | 15895 ft | 357 kts | 274° |
| 2026-04-21 17:28 | 29.81460 | -96.66172 | 15898 ft | 357 kts | 274° |
| 2026-04-21 17:28 | 29.81668 | -96.69026 | 15888 ft | 358 kts | 274° |
| 2026-04-21 17:28 | 29.81875 | -96.71845 | 15902 ft | 358 kts | 274° |
| 2026-04-21 17:29 | 29.82086 | -96.74708 | 15894 ft | 358 kts | 274° |
| 2026-04-21 17:29 | 29.82296 | -96.77570 | 15994 ft | 356 kts | 274° |
| 2026-04-21 17:29 | 29.82504 | -96.80423 | 16049 ft | 358 kts | 274° |
| 2026-04-21 17:29 | 29.82713 | -96.83289 | 16027 ft | 357 kts | 274° |
| 2026-04-21 17:30 | 29.82917 | -96.86099 | 16040 ft | 356 kts | 274° |
| 2026-04-21 17:30 | 29.83125 | -96.88976 | 16055 ft | 366 kts | 274° |
| 2026-04-21 17:30 | 29.83339 | -96.91961 | 16057 ft | 379 kts | 274° |
| 2026-04-21 17:30 | 29.83559 | -96.95027 | 16053 ft | 386 kts | 274° |
| 2026-04-21 17:31 | 29.83778 | -96.98080 | 16042 ft | 385 kts | 274° |
| 2026-04-21 17:31 | 29.83997 | -97.01148 | 16047 ft | 382 kts | 274° |
| 2026-04-21 17:31 | 29.84215 | -97.04198 | 16043 ft | 380 kts | 274° |
| 2026-04-21 17:31 | 29.84429 | -97.07218 | 16043 ft | 379 kts | 274° |
| 2026-04-21 17:32 | 29.84644 | -97.10256 | 16044 ft | 379 kts | 274° |
| 2026-04-21 17:32 | 29.84855 | -97.13243 | 16042 ft | 380 kts | 274° |
| 2026-04-21 17:32 | 29.85068 | -97.16282 | 16046 ft | 381 kts | 274° |
| 2026-04-21 17:32 | 29.85281 | -97.19332 | 16048 ft | 382 kts | 274° |
| 2026-04-21 17:33 | 29.85494 | -97.22386 | 16047 ft | 383 kts | 274° |
| 2026-04-21 17:33 | 29.85708 | -97.25463 | 16045 ft | 384 kts | 274° |
| 2026-04-21 17:33 | 29.85922 | -97.28548 | 16045 ft | 385 kts | 274° |
| 2026-04-21 17:33 | 29.86132 | -97.31590 | 16049 ft | 385 kts | 274° |
| 2026-04-21 17:34 | 29.86345 | -97.34675 | 16044 ft | 386 kts | 274° |
| 2026-04-21 17:34 | 29.86556 | -97.37757 | 16045 ft | 385 kts | 274° |
| 2026-04-21 17:34 | 29.86767 | -97.40846 | 16048 ft | 385 kts | 274° |
| 2026-04-21 17:34 | 29.86977 | -97.43927 | 16045 ft | 385 kts | 274° |
| 2026-04-21 17:35 | 29.87183 | -97.46958 | 16044 ft | 384 kts | 274° |
| 2026-04-21 17:35 | 29.87391 | -97.50033 | 16051 ft | 384 kts | 274° |
| 2026-04-21 17:35 | 29.87598 | -97.53106 | 16055 ft | 383 kts | 273° |
| 2026-04-21 17:35 | 29.87804 | -97.56166 | 16063 ft | 383 kts | 273° |
| 2026-04-21 17:36 | 29.88009 | -97.59227 | 16073 ft | 383 kts | 274° |
| 2026-04-21 17:36 | 29.88210 | -97.62243 | 16066 ft | 383 kts | 274° |
| 2026-04-21 17:36 | 29.88413 | -97.65303 | 16066 ft | 382 kts | 274° |
| 2026-04-21 17:36 | 29.88616 | -97.68373 | 16068 ft | 382 kts | 274° |
| 2026-04-21 17:37 | 29.88819 | -97.71436 | 16078 ft | 382 kts | 274° |
| 2026-04-21 17:37 | 29.89018 | -97.74461 | 16087 ft | 382 kts | 274° |
| 2026-04-21 17:37 | 29.89153 | -97.76528 | 16084 ft | 383 kts | 274° |
| 2026-04-21 17:37 | 29.89419 | -97.80585 | 16090 ft | 383 kts | 274° |
| 2026-04-21 17:38 | 29.89618 | -97.83650 | 16076 ft | 384 kts | 273° |
| 2026-04-21 17:38 | 29.89546 | -97.86727 | 16065 ft | 383 kts | 258° |
| 2026-04-21 17:38 | 29.88731 | -97.89597 | 16041 ft | 371 kts | 249° |
| 2026-04-21 17:38 | 29.87807 | -97.92273 | 15946 ft | 356 kts | 249° |
| 2026-04-21 17:39 | 29.86927 | -97.94874 | 15843 ft | 341 kts | 250° |
| 2026-04-21 17:39 | 29.86086 | -97.97373 | 15754 ft | 327 kts | 250° |
| 2026-04-21 17:39 | 29.85281 | -97.99770 | 15626 ft | 315 kts | 250° |
| 2026-04-21 17:39 | 29.84498 | -98.02105 | 15282 ft | 311 kts | 250° |
| 2026-04-21 17:40 | 29.83724 | -98.04422 | 14886 ft | 310 kts | 250° |
| 2026-04-21 17:40 | 29.82953 | -98.06739 | 14497 ft | 308 kts | 250° |
| 2026-04-21 17:40 | 29.82188 | -98.09041 | 14138 ft | 306 kts | 250° |
| 2026-04-21 17:40 | 29.81434 | -98.11307 | 13911 ft | 298 kts | 250° |
| 2026-04-21 17:41 | 29.80703 | -98.13496 | 13831 ft | 286 kts | 250° |
| 2026-04-21 17:41 | 29.80010 | -98.15573 | 13722 ft | 276 kts | 250° |
| 2026-04-21 17:41 | 29.79320 | -98.17646 | 13205 ft | 280 kts | 250° |
| 2026-04-21 17:41 | 29.78622 | -98.19749 | 12849 ft | 278 kts | 249° |
| 2026-04-21 17:42 | 29.77949 | -98.21773 | 12689 ft | 270 kts | 249° |
| 2026-04-21 17:42 | 29.77279 | -98.23785 | 12372 ft | 268 kts | 249° |
| 2026-04-21 17:42 | 29.76611 | -98.25789 | 12009 ft | 268 kts | 249° |
| 2026-04-21 17:42 | 29.75943 | -98.27791 | 11674 ft | 267 kts | 248° |
| 2026-04-21 17:43 | 29.75280 | -98.29779 | 11341 ft | 266 kts | 248° |
| 2026-04-21 17:43 | 29.74615 | -98.31767 | 11030 ft | 265 kts | 248° |
| 2026-04-21 17:43 | 29.73955 | -98.33738 | 10726 ft | 263 kts | 248° |
| 2026-04-21 17:43 | 29.73296 | -98.35706 | 10382 ft | 263 kts | 249° |
| 2026-04-21 17:44 | 29.72658 | -98.37650 | 10118 ft | 260 kts | 249° |
| 2026-04-21 17:44 | 29.72039 | -98.39568 | 10015 ft | 250 kts | 249° |
| 2026-04-21 17:44 | 29.71442 | -98.41420 | 9925 ft | 240 kts | 249° |
| 2026-04-21 17:44 | 29.70936 | -98.43209 | 9761 ft | 232 kts | 261° |
| 2026-04-21 17:45 | 29.70941 | -98.45059 | 9520 ft | 230 kts | 270° |
| 2026-04-21 17:45 | 29.71016 | -98.46880 | 9187 ft | 231 kts | 270° |
| 2026-04-21 17:45 | 29.71082 | -98.48732 | 8863 ft | 231 kts | 269° |
| 2026-04-21 17:45 | 29.71144 | -98.50580 | 8539 ft | 231 kts | 269° |
| 2026-04-21 17:46 | 29.71204 | -98.52424 | 8246 ft | 230 kts | 269° |
| 2026-04-21 17:46 | 29.71262 | -98.54238 | 7939 ft | 229 kts | 268° |
| 2026-04-21 17:46 | 29.71331 | -98.56072 | 7639 ft | 230 kts | 273° |
| 2026-04-21 17:46 | 29.71925 | -98.57797 | 7266 ft | 241 kts | 304° |
| 2026-04-21 17:47 | 29.73031 | -98.59257 | 7030 ft | 241 kts | 304° |
| 2026-04-21 17:47 | 29.74049 | -98.60794 | 6724 ft | 242 kts | 301° |
| 2026-04-21 17:47 | 29.75053 | -98.62349 | 6553 ft | 238 kts | 301° |
| 2026-04-21 17:47 | 29.76003 | -98.63811 | 6466 ft | 224 kts | 301° |
| 2026-04-21 17:48 | 29.76624 | -98.64780 | 6260 ft | 221 kts | 300° |
| 2026-04-21 17:48 | 29.77808 | -98.66642 | 5900 ft | 213 kts | 301° |
| 2026-04-21 17:48 | 29.78683 | -98.68012 | 5534 ft | 212 kts | 301° |
| 2026-04-21 17:48 | 29.79567 | -98.69376 | 5175 ft | 212 kts | 301° |
| 2026-04-21 17:49 | 29.80140 | -98.70846 | 4967 ft | 191 kts | 263° |
| 2026-04-21 17:49 | 29.79732 | -98.72163 | 4983 ft | 174 kts | 229° |
| 2026-04-21 17:49 | 29.78856 | -98.73086 | 4959 ft | 168 kts | 206° |
| 2026-04-21 17:49 | 29.77755 | -98.73469 | 4970 ft | 166 kts | 184° |
| 2026-04-21 17:50 | 29.76642 | -98.73268 | 4947 ft | 162 kts | 161° |
| 2026-04-21 17:50 | 29.75707 | -98.72554 | 4969 ft | 165 kts | 144° |
| 2026-04-21 17:50 | 29.74839 | -98.71689 | 4927 ft | 163 kts | 144° |
| 2026-04-21 17:50 | 29.73989 | -98.70837 | 4967 ft | 166 kts | 144° |
| 2026-04-21 17:51 | 29.73106 | -98.69951 | 4959 ft | 170 kts | 144° |
| 2026-04-21 17:51 | 29.72213 | -98.69051 | 4967 ft | 170 kts | 144° |
| 2026-04-21 17:51 | 29.71322 | -98.68151 | 4987 ft | 168 kts | 143° |
| 2026-04-21 17:51 | 29.70469 | -98.67285 | 4959 ft | 160 kts | 144° |
| 2026-04-21 17:52 | 29.69648 | -98.66454 | 4970 ft | 159 kts | 144° |
| 2026-04-21 17:52 | 29.68811 | -98.65608 | 4821 ft | 161 kts | 143° |
| 2026-04-21 17:52 | 29.67972 | -98.64758 | 4617 ft | 158 kts | 143° |
| 2026-04-21 17:52 | 29.67160 | -98.63934 | 4417 ft | 153 kts | 143° |
| 2026-04-21 17:53 | 29.66373 | -98.63137 | 4231 ft | 150 kts | 143° |
| 2026-04-21 17:53 | 29.65584 | -98.62338 | 4040 ft | 152 kts | 143° |
| 2026-04-21 17:53 | 29.64784 | -98.61530 | 3840 ft | 153 kts | 142° |
| 2026-04-21 17:53 | 29.63992 | -98.60730 | 3639 ft | 154 kts | 141° |
| 2026-04-21 17:54 | 29.63193 | -98.59922 | 3436 ft | 151 kts | 140° |
| 2026-04-21 17:54 | 29.62460 | -98.59072 | 3239 ft | 148 kts | 136° |
| 2026-04-21 17:54 | 29.61763 | -98.58193 | 3064 ft | 150 kts | 133° |
| 2026-04-21 17:54 | 29.61054 | -98.57282 | 2853 ft | 157 kts | 134° |
| 2026-04-21 17:55 | 29.60317 | -98.56336 | 2614 ft | 159 kts | 133° |
| 2026-04-21 17:55 | 29.59599 | -98.55408 | 2400 ft | 151 kts | 132° |
| 2026-04-21 17:55 | 29.58912 | -98.54525 | 2207 ft | 147 kts | 131° |
| 2026-04-21 17:55 | 29.58230 | -98.53647 | 2038 ft | 152 kts | 131° |
| 2026-04-21 17:56 | 29.57511 | -98.52721 | 1834 ft | 156 kts | 132° |
| 2026-04-21 17:56 | 29.56796 | -98.51800 | 1611 ft | 151 kts | 131° |
| 2026-04-21 17:56 | 29.56108 | -98.50915 | 1391 ft | 148 kts | 131° |
| 2026-04-21 17:56 | 29.55419 | -98.50027 | 1206 ft | 149 kts | 131° |
| 2026-04-21 17:57 | 29.54737 | -98.49149 | 1001 ft | 146 kts | 130° |
| 2026-04-21 17:57 | 29.54066 | -98.48285 | 831 ft | 144 kts | 130° |
| 2026-04-21 17:57 | 29.53407 | -98.47433 | 794 ft | 133 kts | 131° |
| 2026-04-21 17:57 | 29.53011 | -98.46934 | 791 ft | 45 kts | 131° |
| 2026-04-21 17:58 | 29.52878 | -98.46761 | 787 ft | 13 kts | 131° |
| 2026-04-21 17:58 | 29.52833 | -98.46709 | 787 ft | 7 kts | 150° |
| 2026-04-21 17:58 | 29.52816 | -98.46706 | 787 ft | 3 kts | 180° |
| 2026-04-21 17:58 | 29.52799 | -98.46712 | 787 ft | 3 kts | 207° |
| 2026-04-21 17:59 | 29.52785 | -98.46724 | 787 ft | 2 kts | 216° |
| 2026-04-21 17:59 | 29.52772 | -98.46736 | 787 ft | 2 kts | 219° |
| 2026-04-21 17:59 | 29.52764 | -98.46744 | 787 ft | 2 kts | 220° |
| 2026-04-21 17:59 | 29.52747 | -98.46760 | 788 ft | 2 kts | 220° |
| 2026-04-21 18:00 | 29.52739 | -98.46768 | 787 ft | 2 kts | 220° |
| 2026-04-21 18:00 | 29.52724 | -98.46783 | 787 ft | 2 kts | 220° |
| 2026-04-21 18:00 | 29.52717 | -98.46790 | 787 ft | 2 kts | 220° |
| 2026-04-21 18:00 | 29.52706 | -98.46807 | 787 ft | 2 kts | 246° |
| 2026-04-21 18:01 | 29.52705 | -98.46817 | 788 ft | 2 kts | 262° |
| 2026-04-21 18:01 | 29.52707 | -98.46832 | 788 ft | 2 kts | 288° |
| 2026-04-21 18:01 | 29.52713 | -98.46844 | 787 ft | 2 kts | 299° |
| 2026-04-21 18:01 | 29.52717 | -98.46857 | 788 ft | 2 kts | 287° |
| 2026-04-21 18:02 | 29.52719 | -98.46870 | 788 ft | 2 kts | 273° |
| 2026-04-21 18:02 | 29.52716 | -98.46882 | 788 ft | 2 kts | 247° |
| 2026-04-21 18:02 | 29.52712 | -98.46893 | 788 ft | 1 kts | 248° |
| 2026-04-21 18:02 | 29.52710 | -98.46904 | 788 ft | 1 kts | 267° |
| 2026-04-21 18:03 | 29.52711 | -98.46915 | 788 ft | 1 kts | 278° |
| 2026-04-21 18:03 | 29.52715 | -98.46925 | 788 ft | 1 kts | 292° |
| 2026-04-21 18:03 | 29.52718 | -98.46935 | 788 ft | 1 kts | 294° |
| 2026-04-21 18:03 | 29.52722 | -98.46945 | 788 ft | 1 kts | 295° |
| 2026-04-21 18:04 | 29.52726 | -98.46953 | 788 ft | 0 kts | 295° |